createdAt,value
2023-04-19T00:01:56.709Z,10.27
2023-04-19T00:07:00.687Z,10.08
2023-04-19T00:12:18.679Z,10.14
2023-04-19T00:17:31.346Z,10.23
2023-04-19T00:22:40.610Z,10.82
2023-04-19T00:28:04.309Z,10.58
2023-04-19T00:33:19.046Z,10.50
2023-04-19T00:38:41.295Z,10.26
2023-04-19T00:44:11.764Z,10.53
2023-04-19T00:49:17.830Z,10.28
2023-04-19T00:54:33.350Z,10.14
2023-04-19T00:59:44.740Z,9.99
2023-04-19T01:05:14.322Z,10.30
2023-04-19T01:10:19.030Z,10.23
2023-04-19T01:15:25.984Z,10.29
2023-04-19T01:20:33.404Z,10.94
2023-04-19T01:31:46.889Z,10.92
2023-04-19T01:37:17.158Z,11.33
2023-04-19T01:42:55.278Z,11.07
2023-04-19T01:48:20.950Z,11.01
2023-04-19T01:53:48.332Z,10.80
2023-04-19T01:59:53.755Z,10.87
2023-04-19T02:10:21.171Z,10.96
2023-04-19T02:15:42.304Z,11.41
2023-04-19T02:26:43.040Z,10.71
2023-04-19T02:31:49.115Z,10.44
2023-04-19T02:37:06.259Z,10.70
2023-04-19T02:42:21.799Z,10.76
2023-04-19T02:47:28.564Z,10.76
2023-04-19T02:52:32.654Z,10.65
2023-04-19T02:57:37.485Z,10.69
2023-04-19T03:02:49.691Z,10.09
2023-04-19T03:07:50.387Z,10.08
2023-04-19T03:13:37.437Z,10.35
2023-04-19T03:19:03.016Z,10.29
2023-04-19T03:24:22.312Z,9.98
2023-04-19T03:29:37.058Z,10.14
2023-04-19T03:34:59.671Z,10.24
2023-04-19T03:40:40.990Z,10.00
2023-04-19T03:46:28.531Z,10.02
2023-04-19T03:51:59.056Z,9.92
2023-04-19T03:57:20.170Z,9.94
2023-04-19T04:02:52.481Z,10.09
2023-04-19T04:08:40.156Z,10.15
2023-04-19T04:26:09.469Z,10.70
2023-04-19T04:31:27.746Z,11.04
2023-04-19T04:36:44.568Z,10.68
2023-04-19T04:48:26.166Z,11.04
2023-04-19T04:54:34.044Z,10.63
2023-04-19T05:05:45.426Z,11.00
2023-04-19T05:11:06.389Z,10.95
2023-04-19T05:33:09.662Z,11.33
2023-04-19T05:38:38.199Z,11.18
2023-04-19T05:44:11.729Z,11.13
2023-04-19T05:49:25.999Z,11.43
2023-04-19T05:54:48.061Z,11.77
2023-04-19T06:00:23.286Z,11.98
2023-04-19T06:11:53.449Z,11.06
2023-04-19T06:17:06.959Z,11.58
2023-04-19T06:22:14.491Z,11.60
2023-04-19T06:27:24.404Z,11.65
2023-04-19T06:32:57.406Z,11.79
2023-04-19T06:38:03.861Z,11.61
2023-04-19T06:43:06.002Z,12.34
2023-04-19T06:48:35.078Z,12.71
2023-04-19T06:53:42.104Z,12.43
2023-04-19T06:58:43.461Z,12.13
2023-04-19T07:03:42.522Z,12.14
2023-04-19T07:09:05.045Z,12.82
2023-04-19T07:20:12.063Z,12.48
2023-04-19T07:26:38.808Z,12.56
2023-04-19T07:32:19.582Z,12.40
2023-04-19T07:44:04.328Z,13.21
2023-04-19T07:49:12.707Z,12.99
2023-04-19T07:54:36.319Z,13.02
2023-04-19T08:00:08.864Z,13.26
2023-04-19T08:05:21.198Z,13.94
2023-04-19T08:10:25.178Z,13.49
2023-04-19T08:16:20.494Z,13.52
2023-04-19T08:21:09.952Z,13.98
2023-04-19T08:27:10.185Z,14.49
2023-04-19T08:32:04.028Z,14.64
2023-04-19T08:37:14.838Z,14.12
2023-04-19T08:42:28.764Z,13.47
2023-04-19T08:52:54.834Z,13.48
2023-04-19T09:04:01.157Z,13.83
2023-04-19T09:14:40.020Z,14.54
2023-04-19T09:19:49.193Z,14.44
2023-04-19T09:30:24.180Z,16.16
2023-04-19T09:35:57.009Z,17.14
2023-04-19T09:41:08.475Z,17.24
2023-04-19T09:46:10.227Z,17.12
2023-04-19T09:51:15.145Z,17.53
2023-04-19T09:56:14.227Z,17.69
2023-04-19T10:01:24.734Z,18.19
2023-04-19T10:06:45.923Z,18.26
2023-04-19T10:12:03.158Z,18.21
2023-04-19T10:17:35.319Z,18.27
2023-04-19T10:22:39.378Z,18.50
2023-04-19T10:28:03.786Z,17.75
2023-04-19T10:33:35.191Z,17.86
2023-04-19T10:38:46.569Z,17.90
2023-04-19T10:43:58.664Z,17.82
2023-04-19T10:49:43.682Z,17.41
2023-04-19T10:55:00.420Z,17.17
2023-04-19T11:00:23.429Z,16.74
2023-04-19T11:05:25.656Z,16.69
2023-04-19T11:10:37.770Z,16.52
2023-04-19T11:15:44.417Z,17.07
2023-04-19T11:21:06.773Z,17.80
2023-04-19T11:26:17.113Z,17.92
2023-04-19T11:31:16.667Z,17.81
2023-04-19T11:36:20.970Z,18.06
2023-04-19T11:41:28.645Z,17.84
2023-04-19T11:46:47.366Z,18.15
2023-04-19T11:51:48.100Z,18.34
2023-04-19T12:03:07.028Z,18.91
2023-04-19T12:08:15.798Z,18.97
2023-04-19T12:13:18.427Z,18.77
2023-04-19T12:18:35.890Z,18.63
2023-04-19T12:23:36.836Z,18.46
2023-04-19T12:28:38.314Z,18.59
2023-04-19T12:33:45.100Z,18.71
2023-04-19T12:38:46.944Z,18.58
2023-04-19T12:43:58.132Z,18.91
2023-04-19T12:48:56.036Z,19.18
2023-04-19T12:54:22.861Z,19.29
2023-04-19T12:59:23.876Z,19.76
2023-04-19T13:04:26.239Z,20.24
2023-04-19T13:09:27.400Z,20.18
2023-04-19T13:14:35.011Z,19.52
2023-04-19T13:19:34.942Z,20.50
2023-04-19T13:24:39.414Z,22.45
2023-04-19T13:29:37.903Z,23.60
2023-04-19T13:34:36.792Z,23.90
2023-04-19T13:39:35.605Z,23.76
2023-04-19T13:44:36.927Z,24.67
2023-04-19T13:49:35.608Z,24.77
2023-04-19T13:54:39.241Z,24.82
2023-04-19T13:59:36.746Z,25.02
2023-04-19T14:04:51.448Z,25.31
2023-04-19T14:09:53.140Z,25.48
2023-04-19T14:14:55.080Z,25.72
2023-04-19T14:19:54.307Z,26.24
2023-04-19T14:24:56.487Z,26.77
2023-04-19T14:29:57.853Z,24.46
2023-04-19T14:34:56.807Z,23.72
2023-04-19T14:39:57.953Z,22.98
2023-04-19T14:44:58.907Z,22.17
2023-04-19T14:49:59.794Z,22.71
2023-04-19T14:55:01.785Z,22.13
2023-04-19T15:00:15.731Z,20.56
2023-04-19T15:05:27.850Z,20.90
2023-04-19T15:10:46.965Z,20.70
2023-04-19T15:15:45.709Z,20.25
2023-04-19T15:20:51.456Z,20.19
2023-04-19T15:25:56.179Z,19.67
2023-04-19T15:31:13.848Z,19.51
2023-04-19T15:36:13.655Z,19.30
2023-04-19T15:41:19.851Z,19.12
2023-04-19T15:46:22.874Z,19.12
2023-04-19T15:51:24.313Z,19.01
2023-04-19T15:56:37.216Z,18.89
2023-04-19T16:01:39.786Z,18.72
2023-04-19T16:06:39.235Z,18.52
2023-04-19T16:11:42.326Z,18.51
2023-04-19T16:16:52.713Z,18.65
2023-04-19T16:21:57.112Z,18.68
2023-04-19T16:27:01.569Z,18.50
2023-04-19T16:32:02.038Z,18.52
2023-04-19T16:37:14.603Z,18.46
2023-04-19T16:42:26.728Z,18.61
2023-04-19T16:47:27.395Z,18.32
2023-04-19T16:52:52.205Z,18.28
2023-04-19T16:58:01.868Z,18.08
2023-04-19T17:03:19.826Z,18.10
2023-04-19T17:08:22.450Z,17.67
2023-04-19T17:13:24.158Z,17.70
2023-04-19T17:18:29.423Z,17.45
2023-04-19T17:23:30.161Z,17.27
2023-04-19T17:28:31.071Z,17.04
2023-04-19T17:33:34.839Z,16.85
2023-04-19T17:38:33.634Z,17.13
2023-04-19T17:43:35.369Z,16.84
2023-04-19T17:48:36.772Z,16.60
2023-04-19T17:53:39.054Z,16.73
2023-04-19T17:58:40.255Z,16.44
2023-04-19T18:03:56.155Z,16.47
2023-04-19T18:08:55.338Z,16.01
2023-04-19T18:13:58.815Z,16.08
2023-04-19T18:18:56.994Z,16.12
2023-04-19T18:24:02.922Z,16.10
2023-04-19T18:29:09.499Z,16.13
2023-04-19T18:34:19.949Z,15.22
2023-04-19T18:39:18.993Z,15.16
2023-04-19T18:44:44.254Z,15.36
2023-04-19T18:49:46.096Z,15.31
2023-04-19T18:55:01.697Z,15.11
2023-04-19T19:00:03.398Z,15.37
2023-04-19T19:05:07.487Z,15.73
2023-04-19T19:10:19.041Z,15.69
2023-04-19T19:15:24.416Z,15.77
2023-04-19T19:20:23.346Z,15.50
2023-04-19T19:25:24.999Z,15.18
2023-04-19T19:30:25.907Z,14.56
2023-04-19T19:35:37.008Z,15.16
2023-04-19T19:41:07.946Z,15.44
2023-04-19T19:46:14.075Z,15.26
2023-04-19T19:51:47.614Z,15.65
2023-04-19T19:56:35.820Z,15.53
2023-04-19T20:01:34.416Z,15.21
2023-04-19T20:07:18.273Z,15.77
2023-04-19T20:11:57.842Z,15.54
2023-04-19T20:16:56.903Z,14.89
2023-04-19T20:21:55.539Z,14.82
2023-04-19T20:27:03.090Z,14.67
2023-04-19T20:32:04.662Z,14.68
2023-04-19T20:37:03.991Z,14.40
2023-04-19T20:42:06.119Z,14.59
2023-04-19T20:47:07.478Z,14.73
2023-04-19T20:52:06.684Z,14.70
2023-04-19T20:57:04.975Z,14.86
2023-04-19T21:02:04.156Z,14.92
2023-04-19T21:07:07.615Z,15.04
2023-04-19T21:12:05.799Z,14.98
2023-04-19T21:17:04.162Z,14.99
2023-04-19T21:22:06.311Z,15.15
2023-04-19T21:27:08.539Z,15.23
2023-04-19T21:32:06.405Z,14.79
2023-04-19T21:37:05.086Z,14.56
2023-04-19T21:42:03.332Z,14.32
2023-04-19T21:47:06.252Z,14.63
2023-04-19T21:52:06.118Z,15.04
2023-04-19T21:57:07.574Z,14.94
2023-04-19T22:02:05.850Z,14.84
2023-04-19T22:07:04.097Z,14.62
2023-04-19T22:12:02.535Z,14.59
2023-04-19T22:17:03.599Z,14.56
2023-04-19T22:22:04.650Z,14.72
2023-04-19T22:27:08.549Z,14.40
2023-04-19T22:32:17.353Z,14.45
2023-04-19T22:37:16.937Z,14.33
2023-04-19T22:42:19.125Z,14.36
2023-04-19T22:47:24.124Z,14.17
2023-04-19T22:52:26.827Z,14.37
2023-04-19T22:57:28.954Z,14.45
2023-04-19T23:02:28.727Z,14.43
2023-04-19T23:07:26.455Z,14.34
2023-04-19T23:12:24.798Z,14.24
2023-04-19T23:17:23.513Z,14.21
2023-04-19T23:22:26.769Z,13.91
2023-04-19T23:27:27.936Z,14.05
2023-04-19T23:32:28.195Z,14.32
2023-04-19T23:37:29.602Z,14.16
2023-04-19T23:42:33.553Z,13.77
2023-04-19T23:47:34.416Z,13.87
2023-04-19T23:52:36.257Z,13.76
2023-04-19T23:57:38.353Z,13.58
